Time;durP1;ratioP1;P1;durP2;ratioP2;P2;SDS_P1;SDS_P2;PMS_P1;PMS_P2;Temp;Humidity;BMP_temperature;BMP_pressure;BME280_temperature;BME280_humidity;BME280_pressure;Samples;Min_cycle;Max_cycle;Signal;HPM_P1;HPM_P2
2022/05/08 00:01:05;;;;;;;13.52;3.67;;;7.70;99.90;;;;;;5051991;28;20036;-81
2022/05/08 00:03:31;;;;;;;14.52;3.83;;;7.70;99.90;;;;;;5072513;28;20099;-81
2022/05/08 00:05:56;;;;;;;17.13;4.03;;;7.70;99.90;;;;;;5062646;28;20036;-81
2022/05/08 00:08:22;;;;;;;16.55;4.03;;;7.60;99.90;;;;;;5064672;28;20045;-81
2022/05/08 00:10:48;;;;;;;15.98;4.57;;;7.60;99.90;;;;;;5053652;28;20627;-81
2022/05/08 00:13:14;;;;;;;15.43;4.43;;;7.60;99.90;;;;;;5076417;28;20040;-81
2022/05/08 00:15:40;;;;;;;13.95;4.35;;;7.60;99.90;;;;;;5075728;28;20037;-81
2022/05/08 00:18:06;;;;;;;15.98;4.40;;;7.60;99.90;;;;;;5073426;28;20382;-81
2022/05/08 00:20:33;;;;;;;15.20;4.35;;;7.50;99.90;;;;;;5069124;28;20040;-81
2022/05/08 00:22:58;;;;;;;17.65;4.28;;;7.50;99.90;;;;;;5071780;28;20055;-81
2022/05/08 00:25:26;;;;;;;12.27;4.03;;;7.50;99.90;;;;;;5072146;28;20049;-81
2022/05/08 00:27:52;;;;;;;18.40;4.85;;;7.40;99.90;;;;;;5078756;28;20055;-81
2022/05/08 00:30:17;;;;;;;16.98;4.20;;;7.40;99.90;;;;;;5070043;28;20459;-81
2022/05/08 00:32:43;;;;;;;16.95;4.72;;;7.40;99.90;;;;;;5067321;28;20058;-81
2022/05/08 00:35:12;;;;;;;19.98;4.65;;;7.40;99.90;;;;;;5086122;28;20037;-81
2022/05/08 00:37:39;;;;;;;14.73;4.47;;;7.40;99.90;;;;;;5075950;28;20036;-81
2022/05/08 00:40:05;;;;;;;13.57;3.90;;;7.30;99.90;;;;;;5072783;28;20040;-82
2022/05/08 00:42:31;;;;;;;14.77;4.30;;;7.30;99.90;;;;;;5069883;28;20042;-81
2022/05/08 00:44:56;;;;;;;13.30;3.75;;;7.30;99.90;;;;;;5063691;28;20032;-82
2022/05/08 00:47:22;;;;;;;12.55;3.80;;;7.20;99.90;;;;;;5070818;28;20072;-82
2022/05/08 00:49:49;;;;;;;17.35;4.25;;;7.20;99.90;;;;;;5065431;28;20044;-82
2022/05/08 00:52:16;;;;;;;15.00;4.82;;;7.20;99.90;;;;;;5079979;28;20125;-81
2022/05/08 00:54:42;;;;;;;13.25;3.78;;;7.20;99.90;;;;;;5071279;28;20045;-82
2022/05/08 00:57:09;;;;;;;15.27;4.47;;;7.20;99.90;;;;;;5073655;28;20044;-82
2022/05/08 00:59:34;;;;;;;18.58;4.75;;;7.10;99.90;;;;;;5059490;28;20043;-82
2022/05/08 01:02:00;;;;;;;13.27;3.83;;;7.10;99.90;;;;;;5077954;28;20076;-82
2022/05/08 01:04:26;;;;;;;15.52;4.40;;;7.10;99.90;;;;;;5065041;28;20044;-82
2022/05/08 01:06:51;;;;;;;15.65;4.97;;;7.10;99.90;;;;;;5058018;23;20494;-71
2022/05/08 01:09:18;;;;;;;11.63;3.92;;;7.10;99.90;;;;;;5030367;28;20040;-71
2022/05/08 01:11:44;;;;;;;17.23;4.05;;;7.00;99.90;;;;;;5041471;28;20037;-71
2022/05/08 01:14:09;;;;;;;15.80;4.15;;;7.00;99.90;;;;;;5041315;28;20032;-71
2022/05/08 01:16:35;;;;;;;12.60;4.00;;;7.00;99.90;;;;;;5029240;28;20640;-71
2022/05/08 01:19:01;;;;;;;16.35;4.20;;;7.00;99.90;;;;;;5041415;28;20479;-71
2022/05/08 01:21:41;;;;;;;14.93;4.18;;;6.90;99.90;;;;;;5043667;28;20121;-72
2022/05/08 01:24:11;;;;;;;11.68;4.30;;;7.00;99.90;;;;;;5046868;28;20045;-71
2022/05/08 01:26:37;;;;;;;11.43;4.22;;;6.90;99.90;;;;;;5042642;28;20041;-72
2022/05/08 01:29:03;;;;;;;16.92;4.45;;;6.90;99.90;;;;;;5039833;28;20047;-71
2022/05/08 01:31:31;;;;;;;16.05;5.03;;;6.80;99.90;;;;;;5040771;28;20451;-72
2022/05/08 01:33:56;;;;;;;15.88;4.18;;;6.80;99.90;;;;;;5043932;28;20556;-72
2022/05/08 01:36:22;;;;;;;18.52;4.78;;;6.80;99.90;;;;;;5045725;28;20048;-72
2022/05/08 01:38:47;;;;;;;13.43;4.18;;;6.80;99.90;;;;;;5045295;28;20041;-72
2022/05/08 01:41:13;;;;;;;15.50;3.90;;;6.70;99.90;;;;;;5041148;28;22009;-72
2022/05/08 01:43:39;;;;;;;13.07;4.38;;;6.70;99.90;;;;;;5045017;28;20051;-72
2022/05/08 01:46:04;;;;;;;14.43;4.50;;;6.70;99.90;;;;;;5041582;28;20141;-72
2022/05/08 01:48:30;;;;;;;13.63;4.47;;;6.60;99.90;;;;;;5048534;28;20084;-72
2022/05/08 01:50:58;;;;;;;12.98;3.92;;;6.60;99.90;;;;;;5048105;28;20072;-72
2022/05/08 01:53:32;;;;;;;14.68;4.40;;;6.50;99.90;;;;;;5032072;28;20128;-72
2022/05/08 01:55:57;;;;;;;11.20;4.45;;;6.50;99.90;;;;;;5048981;28;20041;-72
2022/05/08 01:58:26;;;;;;;14.85;4.72;;;6.50;99.90;;;;;;5026138;28;20040;-72
2022/05/08 02:00:53;;;;;;;13.15;4.10;;;6.50;99.90;;;;;;5046715;28;20505;-71
2022/05/08 02:03:20;;;;;;;13.80;3.95;;;6.50;99.90;;;;;;5048913;28;20036;-71
2022/05/08 02:05:46;;;;;;;12.75;4.35;;;6.50;99.90;;;;;;5048045;28;20406;-71
2022/05/08 02:08:12;;;;;;;12.45;4.18;;;6.50;99.90;;;;;;5030913;28;20057;-71
2022/05/08 02:10:38;;;;;;;11.60;4.38;;;6.40;99.90;;;;;;5031523;28;20053;-72
2022/05/08 02:13:07;;;;;;;13.45;4.40;;;6.40;99.90;;;;;;5030207;28;20720;-71
2022/05/08 02:15:33;;;;;;;13.65;4.20;;;6.40;99.90;;;;;;5044191;28;20122;-71
2022/05/08 02:18:01;;;;;;;14.63;4.00;;;6.40;99.90;;;;;;5041537;28;20040;-72
2022/05/08 02:20:27;;;;;;;12.70;4.32;;;6.40;99.90;;;;;;5047640;28;20048;-71
2022/05/08 02:22:52;;;;;;;15.60;4.40;;;6.40;99.90;;;;;;5043510;28;20033;-71
2022/05/08 02:25:18;;;;;;;13.23;3.92;;;6.40;99.90;;;;;;5046308;28;20036;-72
2022/05/08 02:27:49;;;;;;;10.82;4.75;;;6.30;99.90;;;;;;5045911;28;20128;-72
2022/05/08 02:30:16;;;;;;;13.95;4.25;;;6.40;99.90;;;;;;5048020;28;20049;-71
2022/05/08 02:32:42;;;;;;;12.98;4.35;;;6.30;99.90;;;;;;5026039;28;20064;-72
2022/05/08 02:35:11;;;;;;;14.85;4.40;;;6.30;99.90;;;;;;5035709;28;20091;-71
2022/05/08 02:37:38;;;;;;;17.23;4.55;;;6.40;99.90;;;;;;5027380;28;20048;-72
2022/05/08 02:40:06;;;;;;;12.50;4.57;;;6.20;99.90;;;;;;5030847;28;20045;-72
2022/05/08 02:42:32;;;;;;;10.32;4.25;;;6.10;99.90;;;;;;5040608;28;20080;-71
2022/05/08 02:44:57;;;;;;;11.02;4.10;;;6.10;99.90;;;;;;5043678;28;20051;-71
2022/05/08 02:47:23;;;;;;;16.42;4.22;;;6.10;99.90;;;;;;5027646;28;20045;-72
2022/05/08 02:49:49;;;;;;;22.23;5.03;;;6.00;99.90;;;;;;5041909;28;20571;-72
2022/05/08 02:52:14;;;;;;;10.32;4.18;;;6.00;99.90;;;;;;5048154;28;20052;-72
2022/05/08 02:54:40;;;;;;;12.27;3.75;;;6.00;99.90;;;;;;5046022;28;20037;-72
2022/05/08 02:59:50;;;;;;;10.65;4.60;;;5.90;99.90;;;;;;5044473;28;20037;-72
2022/05/08 03:02:16;;;;;;;13.35;4.05;;;5.80;99.90;;;;;;5025338;28;20030;-72
2022/05/08 03:04:42;;;;;;;11.98;4.78;;;5.80;99.90;;;;;;5039826;28;20077;-72
2022/05/08 03:07:07;;;;;;;12.90;3.60;;;5.80;99.90;;;;;;5043594;28;20132;-72
2022/05/08 03:09:33;;;;;;;10.20;4.40;;;5.80;99.90;;;;;;5048935;28;20585;-72
2022/05/08 03:11:59;;;;;;;9.13;3.80;;;5.80;99.90;;;;;;5034293;28;20131;-72
2022/05/08 03:14:24;;;;;;;8.93;3.70;;;5.70;99.90;;;;;;5033344;28;20826;-72
2022/05/08 03:16:50;;;;;;;11.00;3.85;;;5.70;99.90;;;;;;5034151;28;20136;-72
2022/05/08 03:19:17;;;;;;;10.55;3.55;;;5.70;99.90;;;;;;5051052;28;20363;-72
2022/05/08 03:21:43;;;;;;;9.05;3.42;;;5.60;99.90;;;;;;5036270;28;20045;-72
2022/05/08 03:24:09;;;;;;;12.10;4.70;;;5.60;99.90;;;;;;5034398;28;20053;-72
2022/05/08 03:26:36;;;;;;;9.48;3.72;;;5.60;99.90;;;;;;5050934;28;20068;-72
2022/05/08 03:29:02;;;;;;;10.02;3.50;;;5.50;99.90;;;;;;5046875;28;20091;-72
2022/05/08 03:31:28;;;;;;;12.52;3.90;;;5.50;99.90;;;;;;5049516;28;20060;-72
2022/05/08 03:33:55;;;;;;;14.10;3.80;;;5.50;99.90;;;;;;5051181;28;20032;-72
2022/05/08 03:36:21;;;;;;;10.60;3.88;;;5.50;99.90;;;;;;5050189;28;20044;-72
2022/05/08 03:38:47;;;;;;;12.88;4.05;;;5.50;99.90;;;;;;5056651;28;20041;-72
2022/05/08 03:41:16;;;;;;;10.20;4.30;;;5.70;99.90;;;;;;5024573;28;20038;-72
2022/05/08 03:43:46;;;;;;;7.00;3.70;;;5.40;99.90;;;;;;5045182;28;20387;-72
2022/05/08 03:46:15;;;;;;;11.23;3.60;;;5.40;99.90;;;;;;5048189;28;20123;-72
2022/05/08 03:48:41;;;;;;;9.68;3.42;;;5.30;99.90;;;;;;5049347;28;20033;-72
2022/05/08 03:51:08;;;;;;;7.78;3.50;;;5.40;99.90;;;;;;5033382;28;20378;-72
2022/05/08 03:53:34;;;;;;;7.97;3.45;;;5.30;99.90;;;;;;5031117;28;20029;-72
2022/05/08 03:55:59;;;;;;;10.80;3.72;;;5.30;99.90;;;;;;5047199;28;20041;-72
2022/05/08 03:58:26;;;;;;;7.82;3.70;;;5.30;99.90;;;;;;5041727;28;20025;-72
2022/05/08 04:00:52;;;;;;;9.10;3.17;;;5.30;99.90;;;;;;5044253;28;20116;-72
2022/05/08 04:03:17;;;;;;;8.20;3.40;;;5.30;99.90;;;;;;5049217;28;20137;-72
2022/05/08 04:05:43;;;;;;;12.60;3.70;;;5.20;99.90;;;;;;5049223;28;20063;-72
2022/05/08 04:08:08;;;;;;;7.32;3.50;;;5.30;99.90;;;;;;5049693;28;20494;-72
2022/05/08 04:10:34;;;;;;;7.75;2.85;;;5.30;99.90;;;;;;5047933;28;20050;-72
2022/05/08 04:13:00;;;;;;;5.55;2.50;;;5.30;99.90;;;;;;5051779;28;20128;-72
2022/05/08 04:18:10;;;;;;;4.82;2.25;;;5.30;99.90;;;;;;5048701;28;20053;-72
2022/05/08 04:20:36;;;;;;;6.90;2.28;;;5.30;99.90;;;;;;5032755;28;20037;-72
2022/05/08 04:25:46;;;;;;;3.08;1.80;;;5.30;99.90;;;;;;5048078;28;20052;-72
2022/05/08 04:28:12;;;;;;;7.63;1.98;;;5.30;99.90;;;;;;5048928;28;20037;-72
2022/05/08 04:30:38;;;;;;;4.60;1.85;;;5.30;99.90;;;;;;5045478;28;20072;-72
2022/05/08 04:33:04;;;;;;;3.88;2.15;;;5.40;99.90;;;;;;5063942;28;20041;-72
2022/05/08 04:35:29;;;;;;;10.25;2.17;;;5.40;99.90;;;;;;5050324;28;20037;-72
2022/05/08 04:37:55;;;;;;;2.70;1.85;;;5.40;99.90;;;;;;5046073;28;20037;-72
2022/05/08 04:40:20;;;;;;;5.22;2.10;;;5.40;99.90;;;;;;5043098;28;20055;-72
2022/05/08 04:42:46;;;;;;;4.82;1.95;;;5.40;99.90;;;;;;5050029;28;20159;-72
2022/05/08 04:45:12;;;;;;;5.15;1.73;;;5.40;99.90;;;;;;5049345;28;20041;-72
2022/05/08 04:47:37;;;;;;;3.83;2.00;;;5.50;99.90;;;;;;5025556;28;20570;-73
2022/05/08 04:50:03;;;;;;;6.43;2.60;;;5.60;99.90;;;;;;5045446;28;20052;-72
2022/05/08 04:52:28;;;;;;;7.20;1.90;;;5.70;99.90;;;;;;5046852;28;20036;-72
2022/05/08 04:54:54;;;;;;;5.22;2.00;;;5.80;99.90;;;;;;5047710;28;20047;-72
2022/05/08 04:57:19;;;;;;;3.60;1.85;;;5.90;99.90;;;;;;5048506;28;20072;-72
2022/05/08 04:59:45;;;;;;;4.93;2.40;;;5.90;99.90;;;;;;5049879;28;20140;-72
2022/05/08 05:02:11;;;;;;;8.18;2.63;;;6.00;99.90;;;;;;5040666;28;20076;-72
2022/05/08 05:04:36;;;;;;;6.40;2.60;;;6.10;99.90;;;;;;5046287;28;20120;-72
2022/05/08 05:07:02;;;;;;;6.53;2.58;;;6.20;99.90;;;;;;5047768;28;20060;-72
2022/05/08 05:09:28;;;;;;;5.90;2.10;;;6.30;99.90;;;;;;5045988;28;20041;-72
2022/05/08 05:11:53;;;;;;;5.85;2.38;;;6.50;99.90;;;;;;5047447;28;20576;-72
2022/05/08 05:14:19;;;;;;;6.63;2.65;;;6.60;99.90;;;;;;5042634;28;20037;-72
2022/05/08 05:16:46;;;;;;;6.35;2.55;;;6.70;99.90;;;;;;5036014;28;20041;-72
2022/05/08 05:19:12;;;;;;;8.25;2.60;;;6.90;99.90;;;;;;5042699;28;20048;-72
2022/05/08 05:21:37;;;;;;;7.10;2.60;;;7.00;99.90;;;;;;5048051;28;20043;-72
2022/05/08 05:24:03;;;;;;;6.65;2.40;;;7.20;99.90;;;;;;5042198;28;20045;-72
2022/05/08 05:26:29;;;;;;;7.85;2.70;;;7.30;99.90;;;;;;5039490;28;20102;-72
2022/05/08 05:28:54;;;;;;;6.68;2.58;;;7.40;99.90;;;;;;5042958;28;20107;-72
2022/05/08 05:31:20;;;;;;;9.02;3.45;;;7.50;99.90;;;;;;5036251;28;20068;-72
2022/05/08 05:33:46;;;;;;;6.40;2.85;;;7.70;99.90;;;;;;5041581;28;20427;-72
2022/05/08 05:36:15;;;;;;;8.98;2.55;;;7.90;99.90;;;;;;5039819;28;20053;-72
2022/05/08 05:38:40;;;;;;;9.85;2.50;;;8.00;99.90;;;;;;5047447;28;20095;-72
2022/05/08 05:41:06;;;;;;;13.23;2.85;;;8.20;99.90;;;;;;5030743;28;20358;-72
2022/05/08 05:43:33;;;;;;;8.65;2.50;;;8.30;99.90;;;;;;5047188;28;20037;-72
2022/05/08 05:48:43;;;;;;;8.02;3.17;;;8.80;99.90;;;;;;5060578;28;20049;-72
2022/05/08 05:51:08;;;;;;;9.18;2.15;;;10.00;99.90;;;;;;5029216;28;20037;-73
2022/05/08 05:53:35;;;;;;;12.43;2.15;;;11.70;99.90;;;;;;5048956;28;20119;-73
2022/05/08 05:56:01;;;;;;;7.10;1.98;;;14.50;99.90;;;;;;5048634;28;20048;-73
2022/05/08 05:58:26;;;;;;;5.15;1.80;;;15.30;99.50;;;;;;5050499;28;20045;-73
2022/05/08 06:00:52;;;;;;;7.45;1.80;;;;;;;;;;5040783;28;20041;-72
2022/05/08 06:03:18;;;;;;;9.30;2.17;;;16.40;99.80;;;;;;5042812;28;20087;-72
2022/05/08 06:05:43;;;;;;;5.32;1.85;;;17.60;97.60;;;;;;5048424;28;20049;-73
2022/05/08 06:08:09;;;;;;;8.32;1.85;;;17.80;96.80;;;;;;5048188;28;20053;-73
2022/05/08 06:10:35;;;;;;;5.50;1.73;;;18.20;92.60;;;;;;5048536;28;20052;-73
2022/05/08 06:13:01;;;;;;;8.43;1.73;;;17.90;85.40;;;;;;5048797;28;20056;-73
2022/05/08 06:15:27;;;;;;;7.22;1.88;;;17.60;90.20;;;;;;5047983;28;20064;-73
2022/05/08 06:17:52;;;;;;;8.18;1.65;;;17.70;93.40;;;;;;5028004;28;20114;-73
2022/05/08 06:20:18;;;;;;;7.25;1.55;;;18.00;92.80;;;;;;5049413;28;20518;-72
2022/05/08 06:22:45;;;;;;;5.45;1.50;;;17.70;85.20;;;;;;5044701;28;20402;-73
2022/05/08 06:25:10;;;;;;;9.90;2.03;;;18.30;90.90;;;;;;5026740;28;20048;-72
2022/05/08 06:27:36;;;;;;;8.85;1.77;;;18.00;91.30;;;;;;5018346;28;20045;-73
2022/05/08 06:30:01;;;;;;;6.60;1.67;;;17.20;90.70;;;;;;5038741;28;20043;-72
2022/05/08 06:32:27;;;;;;;5.35;1.70;;;17.00;89.40;;;;;;5044559;28;20088;-72
2022/05/08 06:34:53;;;;;;;7.57;1.77;;;16.30;92.20;;;;;;5026551;28;20041;-72
2022/05/08 06:37:18;;;;;;;3.08;1.40;;;16.00;92.90;;;;;;5047914;28;20094;-72
2022/05/08 06:39:44;;;;;;;6.93;1.55;;;15.60;93.60;;;;;;5045669;28;20042;-72
2022/05/08 06:42:10;;;;;;;8.55;1.80;;;15.10;92.20;;;;;;5045129;28;20819;-72
2022/05/08 06:44:35;;;;;;;8.43;1.95;;;15.50;93.00;;;;;;5048952;28;20068;-73
2022/05/08 06:47:01;;;;;;;8.88;1.63;;;15.70;94.30;;;;;;5047246;28;20044;-72
2022/05/08 06:49:27;;;;;;;8.35;1.88;;;15.70;94.00;;;;;;5040604;28;20504;-72
2022/05/08 06:51:53;;;;;;;8.77;2.03;;;15.40;93.80;;;;;;5045947;28;20040;-72
2022/05/08 06:54:19;;;;;;;8.15;2.00;;;14.50;93.80;;;;;;5049271;28;20083;-73
2022/05/08 06:56:45;;;;;;;9.80;2.08;;;13.20;94.20;;;;;;5051033;28;20107;-72
2022/05/08 07:01:55;;;;;;;6.03;1.60;;;13.60;97.40;;;;;;5050924;28;20049;-73
2022/05/08 07:04:20;;;;;;;10.65;2.00;;;13.80;97.80;;;;;;5046021;28;20387;-73
2022/05/08 07:06:46;;;;;;;7.72;1.70;;;13.70;97.80;;;;;;5048898;28;20053;-73
2022/05/08 07:09:15;;;;;;;6.65;1.73;;;13.70;97.70;;;;;;5029794;28;20091;-74
2022/05/08 07:11:41;;;;;;;6.93;1.60;;;13.20;95.20;;;;;;5046754;28;20132;-73
2022/05/08 07:14:07;;;;;;;7.93;1.90;;;12.80;95.20;;;;;;5045290;28;20115;-74
2022/05/08 07:16:32;;;;;;;5.90;2.00;;;12.90;96.40;;;;;;5033504;28;20480;-73
2022/05/08 07:18:58;;;;;;;12.13;2.17;;;12.60;97.20;;;;;;5055184;28;20048;-74
2022/05/08 07:21:24;;;;;;;7.07;1.83;;;13.30;96.40;;;;;;5043194;28;20092;-73
2022/05/08 07:23:49;;;;;;;7.05;1.80;;;14.10;96.00;;;;;;5027618;28;20063;-73
2022/05/08 07:26:15;;;;;;;9.38;1.98;;;14.40;94.50;;;;;;5049124;28;20033;-74
2022/05/08 07:28:41;;;;;;;6.13;1.63;;;15.50;95.10;;;;;;5045411;28;20082;-73
2022/05/08 07:31:07;;;;;;;6.05;1.90;;;16.10;93.60;;;;;;5046972;28;20040;-74
2022/05/08 07:33:35;;;;;;;9.70;2.10;;;16.80;92.00;;;;;;5054664;28;20059;-74
2022/05/08 07:36:14;;;;;;;8.27;1.90;;;17.00;90.30;;;;;;5028100;28;20166;-74
2022/05/08 07:38:44;;;;;;;7.13;1.70;;;17.70;90.30;;;;;;5032420;28;20048;-74
2022/05/08 07:41:11;;;;;;;8.43;1.83;;;18.10;87.00;;;;;;5049069;28;20033;-74
2022/05/08 07:43:37;;;;;;;8.60;2.40;;;17.80;84.30;;;;;;5047898;28;20036;-73
2022/05/08 07:46:03;;;;;;;7.78;2.10;;;17.40;80.10;;;;;;5035313;28;20045;-74
2022/05/08 07:48:30;;;;;;;10.60;1.65;;;16.20;78.70;;;;;;5027586;28;20041;-74
2022/05/08 07:50:57;;;;;;;8.13;2.10;;;15.30;82.80;;;;;;5044431;28;20037;-74
2022/05/08 07:53:23;;;;;;;7.93;1.98;;;14.90;87.70;;;;;;5047739;28;20113;-74
2022/05/08 07:55:51;;;;;;;8.65;1.83;;;14.10;88.40;;;;;;5046907;28;20033;-74
2022/05/08 07:58:18;;;;;;;10.07;1.88;;;14.60;92.00;;;;;;5042417;28;20585;-74
2022/05/08 08:00:44;;;;;;;9.00;2.10;;;14.80;92.30;;;;;;5031754;28;20075;-74
2022/05/08 08:03:10;;;;;;;7.03;1.90;;;14.30;92.00;;;;;;5051120;28;20041;-74
2022/05/08 08:05:35;;;;;;;8.50;2.08;;;14.30;91.40;;;;;;5046469;28;20052;-74
2022/05/08 08:08:01;;;;;;;7.07;2.10;;;14.30;92.60;;;;;;5034039;28;20056;-74
2022/05/08 08:10:29;;;;;;;7.30;1.80;;;14.50;92.70;;;;;;5052589;28;20689;-74
2022/05/08 08:12:55;;;;;;;8.00;1.90;;;14.50;91.50;;;;;;5046347;28;20056;-74
2022/05/08 08:15:21;;;;;;;8.02;1.98;;;14.60;92.90;;;;;;5032302;28;20041;-73
2022/05/08 08:17:46;;;;;;;8.35;2.00;;;14.30;91.50;;;;;;5052839;28;20474;-73
2022/05/08 08:20:12;;;;;;;8.57;2.13;;;13.70;92.30;;;;;;5057851;28;20033;-74
2022/05/08 08:22:38;;;;;;;8.77;2.28;;;13.30;92.70;;;;;;5052044;28;20043;-73
2022/05/08 08:25:04;;;;;;;6.53;2.03;;;13.20;93.10;;;;;;5047698;28;20048;-73
2022/05/08 08:27:29;;;;;;;13.05;2.10;;;13.50;94.30;;;;;;5034350;28;20036;-73
2022/05/08 08:29:55;;;;;;;9.50;2.47;;;13.90;94.70;;;;;;5067899;28;20756;-73
2022/05/08 08:32:22;;;;;;;10.45;1.92;;;14.30;94.50;;;;;;5022092;28;20128;-73
2022/05/08 08:34:48;;;;;;;6.03;1.80;;;13.90;91.60;;;;;;5033647;28;20047;-73
2022/05/08 08:37:14;;;;;;;8.90;1.85;;;13.50;93.20;;;;;;5050225;28;20052;-74
2022/05/08 08:39:40;;;;;;;5.65;2.00;;;13.90;93.10;;;;;;5046964;28;20048;-73
2022/05/08 08:42:31;;;;;;;6.80;1.75;;;13.50;92.60;;;;;;5042433;28;20044;-74
2022/05/08 08:47:51;;;;;;;10.10;1.80;;;13.20;93.00;;;;;;5045191;28;20060;-74
2022/05/08 08:50:18;;;;;;;8.05;2.05;;;13.60;94.70;;;;;;5034895;28;20036;-74
2022/05/08 08:52:48;;;;;;;9.45;1.80;;;13.80;94.10;;;;;;5048230;28;20128;-73
2022/05/08 08:55:15;;;;;;;8.27;1.92;;;13.90;92.90;;;;;;5049751;28;20506;-73
2022/05/08 08:57:40;;;;;;;6.10;1.65;;;13.30;92.20;;;;;;5033484;28;20652;-73
2022/05/08 09:00:07;;;;;;;11.02;2.78;;;13.40;92.10;;;;;;5065094;28;20042;-73
2022/05/08 09:02:34;;;;;;;6.70;1.63;;;13.40;92.60;;;;;;5050082;28;20052;-73
2022/05/08 09:05:10;;;;;;;9.20;2.17;;;13.30;92.80;;;;;;5045828;28;20087;-73
2022/05/08 09:07:38;;;;;;;7.15;1.88;;;13.10;92.90;;;;;;5040670;28;20102;-73
2022/05/08 09:10:22;;;;;;;14.65;2.95;;;13.30;94.10;;;;;;5046788;28;20803;-73
2022/05/08 09:12:56;;;;;;;9.15;2.10;;;13.70;93.90;;;;;;5062748;28;20072;-73
2022/05/08 09:15:23;;;;;;;6.57;1.88;;;13.90;93.70;;;;;;5025156;28;20591;-73
2022/05/08 09:17:50;;;;;;;8.02;1.95;;;13.70;91.80;;;;;;5031290;28;20041;-73
2022/05/08 09:20:31;;;;;;;6.35;2.13;;;14.10;93.80;;;;;;5044446;28;20067;-73
2022/05/08 09:23:11;;;;;;;7.32;1.92;;;14.40;93.10;;;;;;5046250;28;20127;-73
2022/05/08 09:25:47;;;;;;;8.52;2.30;;;14.30;91.70;;;;;;5048338;28;20478;-73
2022/05/08 09:28:21;;;;;;;5.65;1.90;;;13.80;91.40;;;;;;5059933;28;20538;-73
2022/05/08 09:30:56;;;;;;;6.95;2.00;;;13.60;92.00;;;;;;5048835;28;20043;-73
2022/05/08 09:33:22;;;;;;;9.77;2.33;;;14.20;94.50;;;;;;5045866;28;20045;-73
2022/05/08 09:35:48;;;;;;;8.38;2.00;;;14.50;93.90;;;;;;5049132;28;20052;-73
2022/05/08 09:38:14;;;;;;;8.82;2.13;;;14.50;91.10;;;;;;5029858;28;20052;-73
2022/05/08 09:40:39;;;;;;;9.48;2.40;;;13.60;92.40;;;;;;5045999;28;20130;-73
2022/05/08 09:43:05;;;;;;;8.85;2.45;;;13.40;92.80;;;;;;5046600;28;20028;-73
2022/05/08 09:45:31;;;;;;;6.68;2.28;;;13.80;93.50;;;;;;5039711;28;20507;-73
2022/05/08 09:47:57;;;;;;;11.30;2.40;;;14.20;94.30;;;;;;5035763;28;20060;-73
2022/05/08 09:50:23;;;;;;;8.60;2.15;;;14.30;94.00;;;;;;5046579;28;20058;-73
2022/05/08 09:52:48;;;;;;;6.53;1.85;;;14.20;90.90;;;;;;5048142;28;20045;-73
2022/05/08 09:55:14;;;;;;;8.02;2.10;;;13.90;90.50;;;;;;5048463;28;20494;-73
2022/05/08 09:57:40;;;;;;;8.85;2.30;;;13.80;91.90;;;;;;5045097;28;20058;-73
2022/05/08 10:00:08;;;;;;;8.27;1.77;;;13.60;92.30;;;;;;5047116;28;20046;-73
2022/05/08 10:02:35;;;;;;;8.80;2.38;;;13.90;93.20;;;;;;5048032;28;20087;-71
2022/05/08 10:05:01;;;;;;;7.85;1.90;;;14.00;92.20;;;;;;5027237;28;20054;-72
2022/05/08 10:07:28;;;;;;;9.25;2.58;;;14.50;93.70;;;;;;5044657;28;20041;-72
2022/05/08 10:15:32;;;;;;;7.90;2.08;;;14.60;92.10;;;;;;5064786;28;20053;-78
2022/05/08 10:18:23;;;;;;;6.38;1.88;;;14.40;88.90;;;;;;5030984;28;20140;-77
2022/05/08 10:21:01;;;;;;;7.22;2.17;;;14.40;90.40;;;;;;5048357;28;20412;-78
2022/05/08 10:23:36;;;;;;;12.05;2.78;;;14.60;91.90;;;;;;5045420;28;20048;-78
2022/05/08 10:26:23;;;;;;;9.48;1.95;;;14.60;90.70;;;;;;5041791;28;20137;-78
2022/05/08 10:29:03;;;;;;;5.55;1.88;;;14.50;90.70;;;;;;5048847;28;20056;-77
2022/05/08 10:31:41;;;;;;;6.45;1.98;;;14.60;85.20;;;;;;5027954;28;20510;-78
2022/05/08 10:34:08;;;;;;;5.70;1.98;;;14.80;89.80;;;;;;5045547;28;20065;-78
2022/05/08 10:36:33;;;;;;;9.98;2.00;;;14.20;85.10;;;;;;5048442;28;20056;-78
2022/05/08 10:39:38;;;;;;;10.57;2.35;;;14.50;90.40;;;;;;5047185;28;20045;-78
2022/05/08 10:42:04;;;;;;;10.43;2.47;;;14.40;87.30;;;;;;5022744;28;20084;-76
2022/05/08 10:44:39;;;;;;;6.47;1.88;;;14.10;87.60;;;;;;5043220;28;20052;-76
2022/05/08 10:47:42;;;;;;;6.50;2.03;;;14.40;90.60;;;;;;5062300;28;20794;-76
2022/05/08 10:50:13;;;;;;;7.78;2.20;;;14.40;90.20;;;;;;5039863;28;20052;-76
2022/05/08 10:52:44;;;;;;;5.82;1.50;;;14.70;90.20;;;;;;5048202;28;20049;-76
2022/05/08 10:55:15;;;;;;;8.50;2.50;;;14.90;90.10;;;;;;5047541;28;20396;-76
2022/05/08 10:57:44;;;;;;;11.02;2.88;;;15.20;88.80;;;;;;5032044;28;20049;-77
2022/05/08 11:00:15;;;;;;;9.27;2.00;;;15.20;88.30;;;;;;5048199;28;20048;-77
2022/05/08 11:02:50;;;;;;;7.32;2.35;;;15.20;90.20;;;;;;5062474;28;20478;-77
2022/05/08 11:05:24;;;;;;;8.02;2.13;;;15.00;86.80;;;;;;5029278;28;20072;-77
2022/05/08 11:07:56;;;;;;;8.20;2.03;;;15.00;90.00;;;;;;5043384;28;20076;-77
2022/05/08 11:10:22;;;;;;;9.30;2.72;;;15.30;86.60;;;;;;5035230;28;20053;-77
2022/05/08 11:13:02;;;;;;;9.02;2.20;;;15.50;88.50;;;;;;5031575;28;20056;-77
2022/05/08 11:15:33;;;;;;;8.40;2.50;;;15.70;84.80;;;;;;5048226;28;20419;-77
2022/05/08 11:18:15;;;;;;;5.25;1.85;;;15.80;88.80;;;;;;5046957;28;20036;-77
2022/05/08 11:20:45;;;;;;;;;;;14.90;86.20;;;;;;5048479;28;20045;-77
2022/05/08 11:23:12;;;;;;;13.07;2.58;;;15.20;90.80;;;;;;5048155;28;19917;-77
2022/05/08 11:25:38;;;;;;;8.20;2.60;;;15.40;87.10;;;;;;5048169;28;20098;-77
2022/05/08 11:28:04;;;;;;;8.65;2.55;;;15.60;90.50;;;;;;5046501;28;20637;-77
2022/05/08 11:30:32;;;;;;;6.93;2.17;;;15.80;89.90;;;;;;5051019;28;20076;-77
2022/05/08 11:38:39;;;;;;;9.27;2.63;;;15.70;86.70;;;;;;5047390;28;20652;-77
2022/05/08 11:41:07;;;;;;;11.60;2.38;;;15.90;88.70;;;;;;5048954;28;20486;-77
2022/05/08 11:43:47;;;;;;;6.22;1.92;;;16.00;84.70;;;;;;5048769;28;20075;-85
2022/05/08 11:46:15;;;;;;;8.13;2.05;;;15.90;81.10;;;;;;5054961;28;20124;-86
2022/05/08 11:48:48;;;;;;;8.00;1.95;;;16.00;84.30;;;;;;5054659;28;20037;-85
2022/05/08 11:51:16;;;;;;;7.88;2.95;;;16.00;85.40;;;;;;5024861;28;20037;-85
2022/05/08 11:53:45;;;;;;;10.38;2.30;;;16.00;82.20;;;;;;5032857;28;20582;-85
2022/05/08 11:56:21;;;;;;;8.93;2.25;;;15.70;78.90;;;;;;5038402;28;20476;-85
2022/05/08 11:58:47;;;;;;;6.35;2.10;;;15.60;80.00;;;;;;5050331;28;20037;-85
2022/05/08 12:01:32;;;;;;;5.10;1.90;;;15.50;79.80;;;;;;5054616;28;20547;-85
2022/05/08 12:04:28;;;;;;;6.55;1.85;;;15.60;78.50;;;;;;5041630;28;20041;-84
2022/05/08 12:07:13;;;;;;;12.48;2.72;;;16.00;83.80;;;;;;5049091;28;20386;-85
2022/05/08 12:09:51;;;;;;;4.75;1.80;;;16.10;81.50;;;;;;5050249;28;20049;-86
2022/05/08 12:12:26;;;;;;;6.80;2.03;;;16.30;81.20;;;;;;5049333;28;20044;-86
2022/05/08 12:14:59;;;;;;;16.52;2.45;;;16.10;78.30;;;;;;5053872;28;20037;-86
2022/05/08 12:17:25;;;;;;;6.63;1.80;;;16.40;78.80;;;;;;5052205;28;20057;-85
2022/05/08 12:19:59;;;;;;;7.15;1.70;;;16.00;80.20;;;;;;5048063;28;20037;-85
2022/05/08 12:22:27;;;;;;;5.32;1.90;;;16.00;77.20;;;;;;5039126;28;20045;-85
2022/05/08 12:24:53;;;;;;;10.00;2.45;;;16.10;76.00;;;;;;5048576;28;20069;-85
2022/05/08 12:27:19;;;;;;;8.70;1.83;;;16.40;80.80;;;;;;5065492;28;20084;-85
2022/05/08 12:29:46;;;;;;;5.20;1.88;;;16.20;72.80;;;;;;5054348;28;20673;-86
2022/05/08 12:32:12;;;;;;;5.07;1.80;;;16.00;76.40;;;;;;5054384;28;20402;-85
2022/05/08 12:34:41;;;;;;;5.90;2.20;;;16.20;80.50;;;;;;5053412;28;20609;-85
2022/05/08 12:37:07;;;;;;;5.82;1.83;;;16.30;75.10;;;;;;5051324;28;20041;-83
2022/05/08 12:39:32;;;;;;;6.72;1.95;;;16.10;81.20;;;;;;5051903;28;20382;-84
2022/05/08 12:41:58;;;;;;;5.07;1.67;;;16.00;72.30;;;;;;5052376;28;20116;-84
2022/05/08 12:44:23;;;;;;;4.18;1.77;;;15.90;74.60;;;;;;5052608;28;20538;-84
2022/05/08 12:46:49;;;;;;;6.65;2.03;;;16.00;80.80;;;;;;5055770;28;20390;-84
2022/05/08 12:49:16;;;;;;;5.10;1.90;;;15.90;70.70;;;;;;5060921;28;20479;-84
2022/05/08 12:51:42;;;;;;;6.50;2.10;;;15.70;70.30;;;;;;5043451;28;20076;-84
2022/05/08 12:54:08;;;;;;;8.15;2.10;;;15.80;72.30;;;;;;5040564;28;20053;-84
2022/05/08 12:56:34;;;;;;;6.32;1.85;;;15.90;73.30;;;;;;5046019;28;20376;-84
2022/05/08 13:01:46;;;;;;;5.15;1.90;;;15.90;71.80;;;;;;5047705;28;20049;-84
2022/05/08 13:04:12;;;;;;;6.22;1.77;;;15.90;75.10;;;;;;5049541;28;20429;-84
2022/05/08 13:06:38;;;;;;;7.50;2.42;;;15.90;75.00;;;;;;5049555;28;20045;-84
2022/05/08 13:09:06;;;;;;;6.35;2.22;;;15.80;75.90;;;;;;5052245;28;20222;-83
2022/05/08 13:11:33;;;;;;;6.30;1.75;;;15.60;74.90;;;;;;5054488;28;20044;-83
2022/05/08 13:13:59;;;;;;;11.48;2.13;;;15.60;76.00;;;;;;5052152;28;20075;-83
2022/05/08 13:16:25;;;;;;;5.65;1.90;;;16.00;74.10;;;;;;5053266;28;20499;-84
2022/05/08 13:18:51;;;;;;;6.13;1.83;;;16.10;74.40;;;;;;5053358;28;20158;-83
2022/05/08 13:21:17;;;;;;;9.32;2.60;;;16.40;79.70;;;;;;5046109;22;20044;-75